Time;durP1;ratioP1;P1;durP2;ratioP2;P2;SDS_P1;SDS_P2;PMS_P1;PMS_P2;Temp;Humidity;BMP_temperature;BMP_pressure;BME280_temperature;BME280_humidity;BME280_pressure;Samples;Min_cycle;Max_cycle;Signal;HPM_P1;HPM_P2
2021/10/24 00:02:25;;;;;;;1.38;0.90;;;21.40;53.40;;;;;;6295892;28;20096;-70
2021/10/24 00:05:26;;;;;;;1.70;1.05;;;21.40;53.30;;;;;;6294198;28;20114;-70
2021/10/24 00:08:27;;;;;;;1.58;0.90;;;21.40;53.30;;;;;;6287848;28;20025;-70
2021/10/24 00:11:28;;;;;;;1.63;1.10;;;21.40;53.30;;;;;;6269321;28;20057;-70
2021/10/24 00:14:28;;;;;;;1.20;0.88;;;21.40;53.40;;;;;;6295431;28;20104;-70
2021/10/24 00:17:30;;;;;;;1.17;0.80;;;21.40;53.40;;;;;;6294183;28;20493;-70
2021/10/24 00:20:32;;;;;;;1.67;1.20;;;21.40;53.40;;;;;;6294591;28;20055;-70
2021/10/24 00:23:33;;;;;;;1.38;0.90;;;21.30;53.30;;;;;;6293924;28;20031;-70
2021/10/24 00:26:34;;;;;;;1.33;0.98;;;21.40;53.30;;;;;;6288823;28;20020;-70
2021/10/24 00:29:34;;;;;;;1.02;0.80;;;21.40;53.40;;;;;;6294005;28;20059;-70
2021/10/24 00:32:35;;;;;;;0.90;0.70;;;21.30;53.40;;;;;;6294126;28;20032;-70
2021/10/24 00:35:36;;;;;;;1.52;0.88;;;21.40;53.40;;;;;;6295101;28;20048;-70
2021/10/24 00:38:36;;;;;;;1.33;0.80;;;21.40;53.40;;;;;;6295098;28;20042;-70
2021/10/24 00:41:37;;;;;;;1.42;1.10;;;21.40;53.40;;;;;;6294792;28;20070;-70
2021/10/24 00:44:37;;;;;;;1.50;1.08;;;21.40;53.40;;;;;;6293818;28;20024;-70
2021/10/24 00:47:38;;;;;;;1.73;0.95;;;21.40;53.40;;;;;;6280430;28;20032;-70
2021/10/24 00:50:41;;;;;;;1.50;1.08;;;21.40;53.40;;;;;;6270170;28;20025;-70
2021/10/24 00:53:42;;;;;;;1.35;0.88;;;21.40;53.40;;;;;;6269591;28;20033;-70
2021/10/24 00:56:44;;;;;;;1.10;0.90;;;21.30;53.40;;;;;;6276758;28;20465;-70
2021/10/24 00:59:45;;;;;;;1.75;0.90;;;21.40;53.40;;;;;;6293115;28;20024;-70
2021/10/24 01:02:46;;;;;;;1.42;0.93;;;21.30;53.40;;;;;;6291740;28;20385;-70
2021/10/24 01:05:47;;;;;;;1.15;0.80;;;21.40;53.50;;;;;;6293466;28;20021;-70
2021/10/24 01:08:47;;;;;;;1.42;1.00;;;21.40;53.40;;;;;;6294586;28;20048;-70
2021/10/24 01:11:50;;;;;;;1.02;0.70;;;21.40;53.40;;;;;;6294217;28;20587;-70
2021/10/24 01:14:51;;;;;;;1.42;0.98;;;21.30;53.40;;;;;;6294060;28;20029;-70
2021/10/24 01:17:51;;;;;;;1.20;0.82;;;21.40;53.50;;;;;;6293528;28;20523;-70
2021/10/24 01:20:52;;;;;;;1.05;0.90;;;21.30;53.40;;;;;;6294097;28;20048;-70
2021/10/24 01:23:53;;;;;;;1.88;0.90;;;21.30;53.40;;;;;;6285690;28;20024;-70
2021/10/24 01:26:55;;;;;;;1.50;1.10;;;21.30;53.40;;;;;;6293573;28;20021;-70
2021/10/24 01:29:57;;;;;;;1.30;0.88;;;21.30;53.40;;;;;;6292643;28;20028;-70
2021/10/24 01:32:58;;;;;;;1.25;0.90;;;21.30;53.40;;;;;;6292454;28;20650;-70
2021/10/24 01:36:04;;;;;;;1.20;0.75;;;21.40;53.50;;;;;;6294037;28;20032;-70
2021/10/24 01:39:05;;;;;;;1.13;0.77;;;21.30;53.40;;;;;;6292253;28;20032;-70
2021/10/24 01:42:05;;;;;;;1.40;0.73;;;21.30;53.40;;;;;;6292079;28;20029;-70
2021/10/24 01:45:09;;;;;;;1.52;0.90;;;21.30;53.40;;;;;;6293621;28;20032;-70
2021/10/24 01:48:10;;;;;;;1.23;0.85;;;21.40;53.40;;;;;;6274736;28;20025;-70
2021/10/24 01:51:11;;;;;;;1.10;0.90;;;21.30;53.40;;;;;;6270468;28;20029;-70
2021/10/24 01:54:12;;;;;;;1.30;0.98;;;21.30;53.40;;;;;;6292393;28;20028;-70
2021/10/24 01:57:12;;;;;;;1.42;0.95;;;21.30;53.40;;;;;;6269074;28;20075;-70
2021/10/24 02:00:15;;;;;;;1.45;0.88;;;21.30;53.40;;;;;;6243808;28;20067;-70
2021/10/24 02:03:16;;;;;;;1.65;1.10;;;21.30;53.40;;;;;;6280787;28;20020;-70
2021/10/24 02:06:17;;;;;;;1.20;0.80;;;21.40;53.40;;;;;;6293198;28;20016;-71
2021/10/24 02:09:18;;;;;;;1.58;0.90;;;21.40;53.50;;;;;;6269276;28;20103;-70
2021/10/24 02:12:18;;;;;;;0.85;0.75;;;21.40;53.50;;;;;;6268046;28;20040;-70
2021/10/24 02:15:19;;;;;;;1.13;0.90;;;21.40;53.50;;;;;;6267550;28;20040;-70
2021/10/24 02:18:20;;;;;;;1.52;1.00;;;21.30;53.40;;;;;;6280869;28;20504;-70
2021/10/24 02:21:20;;;;;;;1.45;0.80;;;21.40;53.50;;;;;;6292664;28;20024;-70
2021/10/24 02:24:21;;;;;;;1.27;0.90;;;21.30;53.40;;;;;;6291239;28;20024;-70
2021/10/24 02:27:22;;;;;;;1.10;0.80;;;21.30;53.40;;;;;;6292185;28;20043;-70
2021/10/24 02:30:23;;;;;;;2.42;1.00;;;21.40;53.60;;;;;;6291946;28;20040;-70
2021/10/24 02:33:23;;;;;;;1.42;0.70;;;21.30;53.50;;;;;;6291994;28;20025;-70
2021/10/24 02:36:24;;;;;;;1.10;0.80;;;21.30;53.40;;;;;;6291540;28;20028;-70
2021/10/24 02:39:25;;;;;;;1.33;0.70;;;21.30;53.50;;;;;;6292724;28;20554;-70
2021/10/24 02:42:25;;;;;;;1.48;1.00;;;21.30;53.40;;;;;;6292446;28;20021;-70
2021/10/24 02:45:26;;;;;;;1.00;0.80;;;21.30;53.40;;;;;;6292336;28;20024;-70
2021/10/24 02:48:27;;;;;;;1.08;0.82;;;21.30;53.40;;;;;;6290370;28;20031;-70
2021/10/24 02:51:27;;;;;;;1.25;0.80;;;21.30;53.40;;;;;;6292117;28;20028;-70
2021/10/24 02:54:28;;;;;;;0.77;0.77;;;21.30;53.40;;;;;;6292035;28;20728;-70
2021/10/24 02:57:29;;;;;;;1.40;1.08;;;21.30;53.40;;;;;;6290938;28;20036;-70
2021/10/24 03:00:29;;;;;;;1.00;0.70;;;21.30;53.40;;;;;;6292282;28;20071;-70
2021/10/24 03:03:30;;;;;;;1.15;0.70;;;21.30;53.50;;;;;;6292181;28;20024;-70
2021/10/24 03:06:31;;;;;;;1.50;1.00;;;21.30;53.40;;;;;;6291924;28;20029;-70
2021/10/24 03:09:32;;;;;;;1.08;0.90;;;21.30;53.50;;;;;;6290877;28;20498;-70
2021/10/24 03:12:32;;;;;;;1.67;0.75;;;21.30;53.40;;;;;;6292188;28;20054;-70
2021/10/24 03:15:33;;;;;;;1.35;1.10;;;21.30;53.50;;;;;;6292024;28;20036;-70
2021/10/24 03:18:35;;;;;;;1.13;0.90;;;21.30;53.40;;;;;;6273902;28;20033;-70
2021/10/24 03:21:35;;;;;;;1.55;1.00;;;21.30;53.40;;;;;;6269145;28;20094;-70
2021/10/24 03:24:36;;;;;;;0.85;0.70;;;21.30;53.50;;;;;;6292145;28;20021;-70
2021/10/24 03:27:37;;;;;;;0.75;0.70;;;21.30;53.40;;;;;;6272852;28;20394;-70
2021/10/24 03:30:37;;;;;;;1.30;0.75;;;21.30;53.40;;;;;;6289004;28;20025;-70
2021/10/24 03:33:38;;;;;;;1.13;0.82;;;21.30;53.40;;;;;;6291894;28;20039;-70
2021/10/24 03:36:38;;;;;;;1.05;0.70;;;21.30;53.40;;;;;;6290547;28;20024;-70
2021/10/24 03:39:39;;;;;;;1.08;0.70;;;21.30;53.50;;;;;;6291724;28;20032;-70
2021/10/24 03:42:40;;;;;;;1.00;0.80;;;21.30;53.50;;;;;;6280536;28;20104;-70
2021/10/24 03:45:40;;;;;;;0.90;0.80;;;21.30;53.50;;;;;;6266746;28;20367;-70
2021/10/24 03:48:41;;;;;;;0.95;0.70;;;21.30;53.40;;;;;;6272650;28;20033;-70
2021/10/24 03:51:42;;;;;;;0.85;0.73;;;21.30;53.50;;;;;;6277621;28;20024;-70
2021/10/24 03:54:43;;;;;;;1.23;0.90;;;21.30;53.50;;;;;;6296085;28;20043;-70
2021/10/24 03:57:43;;;;;;;1.20;0.70;;;21.30;53.40;;;;;;6280713;28;20078;-70
2021/10/24 04:00:44;;;;;;;1.33;0.82;;;21.30;53.50;;;;;;6271358;28;20072;-70
2021/10/24 04:03:45;;;;;;;1.05;0.80;;;21.30;53.60;;;;;;6294171;28;20074;-70
2021/10/24 04:06:45;;;;;;;1.42;0.88;;;21.30;53.50;;;;;;6290052;28;20025;-70
2021/10/24 04:09:46;;;;;;;0.90;0.70;;;21.30;53.50;;;;;;6271255;28;20044;-70
2021/10/24 04:12:47;;;;;;;1.40;1.05;;;21.30;53.50;;;;;;6280398;28;20024;-70
2021/10/24 04:15:48;;;;;;;1.92;0.90;;;21.30;53.50;;;;;;6295910;28;20097;-70
2021/10/24 04:18:49;;;;;;;1.00;0.70;;;21.30;53.50;;;;;;6276302;28;20056;-68
2021/10/24 04:21:49;;;;;;;0.77;0.73;;;21.30;53.50;;;;;;6271449;28;20032;-69
2021/10/24 04:24:50;;;;;;;1.13;0.70;;;21.30;53.50;;;;;;6271079;28;20419;-69
2021/10/24 04:27:51;;;;;;;1.17;0.90;;;21.30;53.60;;;;;;6291338;28;20033;-69
2021/10/24 04:30:52;;;;;;;1.02;0.80;;;21.30;53.50;;;;;;6293508;28;20075;-68
2021/10/24 04:33:52;;;;;;;1.50;0.98;;;21.30;53.50;;;;;;6295310;28;20563;-68
2021/10/24 04:36:53;;;;;;;1.63;0.73;;;21.30;53.50;;;;;;6293682;28;20485;-69
2021/10/24 04:39:53;;;;;;;1.95;0.90;;;21.30;53.60;;;;;;6296293;28;20024;-68
2021/10/24 04:42:54;;;;;;;0.85;0.80;;;21.30;53.50;;;;;;6296092;28;20056;-68
2021/10/24 04:45:55;;;;;;;0.85;0.68;;;21.30;53.50;;;;;;6294510;28;20099;-68
2021/10/24 04:48:56;;;;;;;0.77;0.70;;;21.30;53.50;;;;;;6271036;28;20017;-68
2021/10/24 04:51:57;;;;;;;1.17;0.60;;;21.30;53.60;;;;;;6271159;28;20044;-68
2021/10/24 04:54:57;;;;;;;1.25;0.80;;;21.30;53.60;;;;;;6269768;28;20025;-69
2021/10/24 04:57:58;;;;;;;2.15;0.73;;;21.30;53.40;;;;;;6269786;28;20036;-68
2021/10/24 05:00:58;;;;;;;1.67;0.80;;;21.30;53.50;;;;;;6267264;28;20113;-68
2021/10/24 05:03:59;;;;;;;0.95;0.70;;;21.30;53.60;;;;;;6296035;28;20474;-68
2021/10/24 05:06:59;;;;;;;1.40;0.80;;;21.30;53.50;;;;;;6295617;28;20042;-68
2021/10/24 05:10:00;;;;;;;1.63;0.80;;;21.30;53.50;;;;;;6290914;28;20103;-68
2021/10/24 05:13:00;;;;;;;1.15;0.68;;;21.30;53.60;;;;;;6270737;28;20055;-68
2021/10/24 05:16:01;;;;;;;1.10;0.75;;;21.30;53.60;;;;;;6270781;28;20025;-69
2021/10/24 05:19:03;;;;;;;1.70;0.80;;;21.30;53.60;;;;;;6288552;28;20488;-69
2021/10/24 05:22:04;;;;;;;1.25;0.90;;;21.30;53.60;;;;;;6294357;28;20066;-68
2021/10/24 05:25:05;;;;;;;2.03;0.90;;;21.30;53.60;;;;;;6274508;28;20016;-68
2021/10/24 05:28:06;;;;;;;0.80;0.60;;;21.30;53.60;;;;;;6272129;28;20560;-69
2021/10/24 05:31:07;;;;;;;1.15;0.90;;;21.30;53.60;;;;;;6275473;28;20073;-68
2021/10/24 05:34:07;;;;;;;1.02;0.80;;;21.30;53.60;;;;;;6294708;28;20028;-68
2021/10/24 05:37:09;;;;;;;1.65;0.80;;;21.30;53.50;;;;;;6294832;28;20078;-68
2021/10/24 05:40:11;;;;;;;1.15;0.93;;;21.30;53.60;;;;;;6293332;28;20060;-68
2021/10/24 05:43:12;;;;;;;0.82;0.77;;;21.30;53.60;;;;;;6272905;28;20055;-68
2021/10/24 05:46:13;;;;;;;1.20;0.75;;;21.30;53.50;;;;;;6269725;28;20096;-68
2021/10/24 05:49:13;;;;;;;1.35;0.90;;;21.30;53.50;;;;;;6269757;28;20025;-68
2021/10/24 05:52:14;;;;;;;0.90;0.60;;;21.30;53.50;;;;;;6269409;28;20036;-68
2021/10/24 05:55:15;;;;;;;0.63;0.57;;;21.30;53.60;;;;;;6269800;28;20025;-68
2021/10/24 05:58:15;;;;;;;1.13;0.90;;;21.30;53.50;;;;;;6269768;28;20025;-68
2021/10/24 06:01:16;;;;;;;1.05;0.70;;;21.30;53.50;;;;;;6271779;28;20021;-68
2021/10/24 06:04:16;;;;;;;0.90;0.80;;;21.30;53.60;;;;;;6292703;28;20599;-70
2021/10/24 06:07:17;;;;;;;1.13;0.70;;;21.30;53.60;;;;;;6284130;28;20051;-70
2021/10/24 06:10:22;;;;;;;1.00;0.60;;;21.30;53.50;;;;;;6266445;28;20043;-71
2021/10/24 06:13:23;;;;;;;0.68;0.68;;;21.30;53.60;;;;;;6287383;28;20078;-70
2021/10/24 06:16:24;;;;;;;1.02;0.70;;;21.30;53.60;;;;;;6291568;28;20028;-70
2021/10/24 06:19:25;;;;;;;1.05;0.73;;;21.30;53.60;;;;;;6266886;28;20031;-70
2021/10/24 06:22:26;;;;;;;1.17;0.70;;;21.30;53.70;;;;;;6276819;28;20021;-71
2021/10/24 06:25:26;;;;;;;1.70;1.00;;;21.30;53.60;;;;;;6285311;28;20120;-70
2021/10/24 06:28:27;;;;;;;1.17;0.60;;;21.30;53.60;;;;;;6292921;28;20028;-70
2021/10/24 06:31:28;;;;;;;1.25;0.80;;;21.30;53.60;;;;;;6292092;28;20103;-70
2021/10/24 06:34:28;;;;;;;0.90;0.60;;;21.30;53.60;;;;;;6269804;28;20032;-70
2021/10/24 06:37:29;;;;;;;1.10;0.80;;;21.30;53.60;;;;;;6285340;28;20041;-70
2021/10/24 06:40:29;;;;;;;0.95;0.73;;;21.30;53.60;;;;;;6279719;28;20406;-70
2021/10/24 06:43:30;;;;;;;1.73;1.02;;;21.30;53.60;;;;;;6265401;28;20473;-70
2021/10/24 06:46:31;;;;;;;1.60;0.70;;;21.30;53.50;;;;;;6259388;28;20033;-70
2021/10/24 06:49:33;;;;;;;0.80;0.80;;;21.30;53.50;;;;;;6243750;28;20037;-70
2021/10/24 06:52:33;;;;;;;2.95;1.02;;;21.30;53.40;;;;;;6266591;28;20112;-71
2021/10/24 06:55:34;;;;;;;1.65;0.70;;;21.30;53.40;;;;;;6270511;28;20370;-70
2021/10/24 06:58:34;;;;;;;0.85;0.70;;;21.30;53.40;;;;;;6255301;28;20122;-70
2021/10/24 07:01:35;;;;;;;1.67;0.88;;;21.30;53.40;;;;;;6262356;28;20061;-70
2021/10/24 07:04:37;;;;;;;1.63;0.70;;;21.30;53.40;;;;;;6263744;28;20025;-70
2021/10/24 07:07:37;;;;;;;1.30;0.80;;;21.30;53.40;;;;;;6263842;28;20037;-71
2021/10/24 07:10:38;;;;;;;1.20;0.80;;;21.30;53.40;;;;;;6264616;28;20126;-71
2021/10/24 07:13:39;;;;;;;2.10;1.00;;;21.30;53.40;;;;;;6283686;28;20492;-70
2021/10/24 07:16:40;;;;;;;1.35;0.75;;;21.30;53.40;;;;;;6278071;28;20029;-70
2021/10/24 07:19:41;;;;;;;1.65;0.80;;;21.30;53.40;;;;;;6288811;28;20504;-70
2021/10/24 07:22:42;;;;;;;1.30;0.70;;;21.30;53.40;;;;;;6288528;28;20568;-70
2021/10/24 07:25:42;;;;;;;1.27;0.88;;;21.30;53.40;;;;;;6276583;28;20572;-71
2021/10/24 07:28:43;;;;;;;0.80;0.70;;;21.30;53.40;;;;;;6269763;28;20108;-70
2021/10/24 07:31:43;;;;;;;1.17;0.75;;;21.30;53.40;;;;;;6269686;28;20033;-70
2021/10/24 07:34:44;;;;;;;1.50;0.85;;;21.30;53.40;;;;;;6268807;28;20501;-70
2021/10/24 07:37:45;;;;;;;1.25;0.70;;;21.30;53.40;;;;;;6282112;28;20383;-70
2021/10/24 07:40:49;;;;;;;1.05;0.63;;;21.30;53.40;;;;;;6289724;28;20017;-71
2021/10/24 07:43:49;;;;;;;1.25;0.70;;;21.30;53.40;;;;;;6279427;28;20041;-70
2021/10/24 07:46:54;;;;;;;2.10;0.70;;;21.30;53.40;;;;;;6273122;28;20033;-70
2021/10/24 07:49:54;;;;;;;1.20;0.70;;;21.30;53.40;;;;;;6287092;28;20023;-70
2021/10/24 07:52:55;;;;;;;2.10;0.93;;;21.30;53.40;;;;;;6295280;28;20024;-70
2021/10/24 07:56:02;;;;;;;5.05;0.70;;;21.30;53.40;;;;;;6295690;28;20024;-70
2021/10/24 07:59:04;;;;;;;1.50;0.88;;;21.30;53.50;;;;;;6271466;28;20028;-70
2021/10/24 08:02:04;;;;;;;1.05;0.70;;;21.30;53.50;;;;;;6280251;28;20405;-70
2021/10/24 08:05:05;;;;;;;0.95;0.75;;;21.30;53.50;;;;;;6294996;28;20028;-70
2021/10/24 08:08:06;;;;;;;1.70;0.75;;;21.30;53.50;;;;;;6295594;28;20111;-70
2021/10/24 08:11:06;;;;;;;1.02;0.60;;;21.30;53.40;;;;;;6296016;28;20048;-70
2021/10/24 08:14:07;;;;;;;1.67;0.80;;;21.30;53.50;;;;;;6274115;28;20394;-69
2021/10/24 08:17:08;;;;;;;2.00;1.10;;;21.30;53.50;;;;;;6275516;28;20016;-69
2021/10/24 08:20:09;;;;;;;1.45;0.95;;;21.30;53.50;;;;;;6294322;28;20035;-70
2021/10/24 08:23:10;;;;;;;2.90;0.77;;;21.30;53.50;;;;;;6295567;28;20043;-70
2021/10/24 08:26:15;;;;;;;0.80;0.63;;;21.30;53.50;;;;;;6289044;28;20025;-70
2021/10/24 08:29:17;;;;;;;1.15;0.77;;;21.30;53.40;;;;;;6295961;28;20603;-69
2021/10/24 08:32:18;;;;;;;1.52;0.60;;;21.30;53.50;;;;;;6293323;28;20020;-70
2021/10/24 08:35:19;;;;;;;0.73;0.57;;;21.30;53.50;;;;;;6295021;28;20512;-69
2021/10/24 08:38:19;;;;;;;2.30;0.93;;;21.30;53.50;;;;;;6293574;28;20024;-69
2021/10/24 08:41:28;;;;;;;1.05;0.57;;;21.30;53.50;;;;;;6295114;28;20021;-69
2021/10/24 08:44:30;;;;;;;1.95;0.80;;;21.30;53.50;;;;;;6293549;28;20021;-70
2021/10/24 08:47:30;;;;;;;1.88;0.75;;;21.30;53.50;;;;;;6279666;28;20108;-69
2021/10/24 08:50:32;;;;;;;1.20;0.75;;;21.30;53.50;;;;;;6268966;28;20033;-69
2021/10/24 08:53:33;;;;;;;1.15;0.70;;;21.30;53.50;;;;;;6292692;28;20030;-69
2021/10/24 08:56:34;;;;;;;1.20;0.93;;;21.30;53.50;;;;;;6290199;28;20032;-70
2021/10/24 08:59:38;;;;;;;0.82;0.65;;;21.30;53.50;;;;;;6294645;28;20606;-70
2021/10/24 09:02:59;;;;;;;1.83;0.80;;;21.30;53.50;;;;;;6293482;28;20500;-69
2021/10/24 09:05:59;;;;;;;1.45;0.70;;;21.30;53.50;;;;;;6294993;28;20024;-70
2021/10/24 09:09:14;;;;;;;1.98;0.80;;;21.30;53.40;;;;;;6272744;28;20386;-69
2021/10/24 09:12:17;;;;;;;1.17;0.73;;;21.30;53.50;;;;;;6268469;28;20052;-70
2021/10/24 09:15:17;;;;;;;1.67;0.80;;;21.30;53.50;;;;;;6269658;28;20065;-70
2021/10/24 09:18:38;;;;;;;0.90;0.70;;;21.30;53.50;;;;;;6283946;28;20024;-70
2021/10/24 09:21:39;;;;;;;1.10;0.70;;;21.30;53.50;;;;;;6293828;28;20033;-70
2021/10/24 09:25:01;;;;;;;1.30;0.98;;;21.30;53.50;;;;;;6293415;28;20033;-69
2021/10/24 09:28:03;;;;;;;0.95;0.75;;;21.30;53.40;;;;;;6269315;28;20043;-70
2021/10/24 09:31:05;;;;;;;1.30;0.50;;;21.30;53.40;;;;;;6267671;28;20035;-70
2021/10/24 09:34:12;;;;;;;1.25;0.82;;;21.30;53.40;;;;;;6268001;28;20028;-69
2021/10/24 09:37:18;;;;;;;1.08;0.70;;;21.30;53.40;;;;;;6282924;28;20020;-69
2021/10/24 09:40:25;;;;;;;2.13;0.65;;;21.30;53.40;;;;;;6294133;28;20032;-70
2021/10/24 09:43:27;;;;;;;1.13;0.70;;;21.30;53.40;;;;;;6292803;28;20085;-69
2021/10/24 09:46:28;;;;;;;0.98;0.60;;;21.30;53.40;;;;;;6285254;28;20039;-69
2021/10/24 09:49:29;;;;;;;1.95;0.90;;;21.30;53.40;;;;;;6265420;28;20529;-69
2021/10/24 09:52:31;;;;;;;1.55;0.60;;;21.30;53.40;;;;;;6278891;28;20036;-69
2021/10/24 09:55:31;;;;;;;1.67;0.80;;;21.30;53.40;;;;;;6289682;28;20136;-69
2021/10/24 09:58:37;;;;;;;1.75;0.90;;;21.30;53.40;;;;;;6289691;28;20025;-69
2021/10/24 10:01:37;;;;;;;1.33;0.68;;;21.30;53.40;;;;;;6272843;28;20036;-69
2021/10/24 10:04:39;;;;;;;1.38;0.80;;;21.30;53.40;;;;;;6289744;28;20134;-70
2021/10/24 10:07:39;;;;;;;1.02;0.60;;;21.30;53.40;;;;;;6289228;28;20040;-69
2021/10/24 10:10:43;;;;;;;1.25;0.55;;;21.30;53.40;;;;;;6289321;28;20076;-69
2021/10/24 10:13:46;;;;;;;2.67;0.70;;;21.30;53.40;;;;;;6289843;28;20025;-69
2021/10/24 10:17:03;;;;;;;1.60;0.60;;;21.30;53.50;;;;;;6289478;28;20052;-69
2021/10/24 10:20:27;;;;;;;1.77;0.90;;;21.30;53.40;;;;;;6292715;28;20493;-70
2021/10/24 10:23:39;;;;;;;0.80;0.57;;;21.30;53.40;;;;;;6291122;28;20024;-70
2021/10/24 10:26:43;;;;;;;1.25;0.80;;;21.30;53.40;;;;;;6286310;28;20051;-70
2021/10/24 10:29:54;;;;;;;0.98;0.70;;;21.30;53.40;;;;;;6292796;28;20090;-69
2021/10/24 10:32:55;;;;;;;1.00;0.57;;;21.30;53.40;;;;;;6290126;28;20029;-69
2021/10/24 10:35:56;;;;;;;1.05;0.55;;;21.30;53.40;;;;;;6291320;28;20125;-70
2021/10/24 10:38:57;;;;;;;0.65;0.60;;;21.30;53.40;;;;;;6281422;28;20028;-70
2021/10/24 10:42:22;;;;;;;1.10;0.63;;;21.30;53.40;;;;;;6257209;28;20052;-70
2021/10/24 10:45:27;;;;;;;0.77;0.57;;;21.30;53.40;;;;;;6268708;28;20584;-70
2021/10/24 10:48:42;;;;;;;3.38;0.70;;;21.30;53.40;;;;;;6260012;28;20029;-70
2021/10/24 10:51:42;;;;;;;1.77;0.80;;;21.30;53.40;;;;;;6276775;28;20108;-70
2021/10/24 10:54:58;;;;;;;2.42;0.50;;;21.30;53.40;;;;;;6264052;28;20037;-70
2021/10/24 10:58:34;;;;;;;0.85;0.55;;;21.30;53.40;;;;;;6271420;28;20360;-70
2021/10/24 11:01:39;;;;;;;1.60;0.70;;;21.30;53.40;;;;;;6279208;28;20028;-71
2021/10/24 11:04:47;;;;;;;1.67;0.70;;;21.30;53.40;;;;;;6264833;28;20568;-70
2021/10/24 11:07:48;;;;;;;1.48;0.52;;;21.30;53.40;;;;;;6262791;28;20029;-70
2021/10/24 11:10:49;;;;;;;4.88;0.65;;;21.30;53.40;;;;;;6266342;28;20059;-71
2021/10/24 11:13:50;;;;;;;1.08;0.63;;;21.30;53.40;;;;;;6264543;28;20410;-70
2021/10/24 11:16:52;;;;;;;1.08;0.60;;;21.30;53.40;;;;;;6272412;28;20119;-70
2021/10/24 11:19:53;;;;;;;2.15;0.70;;;21.30;53.40;;;;;;6269565;28;20484;-70
2021/10/24 11:23:00;;;;;;;0.85;0.70;;;21.30;53.50;;;;;;6285326;28;20021;-70
2021/10/24 11:26:01;;;;;;;5.03;0.75;;;21.30;53.40;;;;;;6273759;28;20106;-70
2021/10/24 11:29:04;;;;;;;1.60;0.77;;;21.30;53.40;;;;;;6265743;28;20478;-70
2021/10/24 11:32:35;;;;;;;1.75;0.60;;;21.40;53.50;;;;;;6264790;28;20049;-70
2021/10/24 11:35:38;;;;;;;5.75;0.70;;;21.40;53.80;;;;;;6266479;28;20245;-70
2021/10/24 11:38:41;;;;;;;4.20;0.68;;;21.40;53.50;;;;;;6266012;28;20029;-71
2021/10/24 11:41:42;;;;;;;1.25;0.65;;;21.40;53.40;;;;;;6271417;28;20031;-70
2021/10/24 11:44:44;;;;;;;5.18;0.80;;;21.40;53.50;;;;;;6274229;28;20434;-71
2021/10/24 11:48:07;;;;;;;2.40;0.50;;;21.40;53.40;;;;;;6271226;28;20136;-70
2021/10/24 11:51:10;;;;;;;6.80;0.75;;;21.40;53.40;;;;;;6280654;28;20024;-70
2021/10/24 11:54:12;;;;;;;2.92;0.82;;;21.40;53.40;;;;;;6290390;28;20024;-71
2021/10/24 11:57:28;;;;;;;2.15;0.73;;;21.40;53.30;;;;;;6288464;28;20447;-70
2021/10/24 12:00:40;;;;;;;2.70;0.90;;;21.40;53.30;;;;;;6287376;28;20525;-70
2021/10/24 12:03:43;;;;;;;1.17;0.70;;;21.50;53.40;;;;;;6289656;28;20016;-70
2021/10/24 12:06:59;;;;;;;3.80;0.80;;;21.40;53.30;;;;;;6281544;28;20086;-70
2021/10/24 12:09:59;;;;;;;2.03;0.80;;;21.40;53.30;;;;;;6274700;28;20134;-70
2021/10/24 12:13:02;;;;;;;1.60;0.40;;;21.40;53.40;;;;;;6293434;28;20657;-70
2021/10/24 12:16:24;;;;;;;1.90;0.63;;;21.50;53.50;;;;;;6293973;28;20028;-70
2021/10/24 12:19:32;;;;;;;1.08;0.55;;;21.50;53.40;;;;;;6267810;28;20033;-70
2021/10/24 12:22:40;;;;;;;4.65;0.75;;;21.50;53.40;;;;;;6284884;28;20051;-70
2021/10/24 12:25:47;;;;;;;4.05;0.52;;;21.50;53.40;;;;;;6272316;28;20113;-70
2021/10/24 12:28:48;;;;;;;0.95;0.60;;;21.50;53.40;;;;;;6269378;28;20025;-70
2021/10/24 12:32:09;;;;;;;1.55;0.70;;;21.50;53.50;;;;;;6276458;28;20021;-70
2021/10/24 12:35:11;;;;;;;2.22;0.80;;;21.50;53.50;;;;;;6268942;28;20031;-70
2021/10/24 12:38:12;;;;;;;1.08;0.52;;;21.50;53.50;;;;;;6268612;28;20032;-70
2021/10/24 12:41:13;;;;;;;1.95;0.50;;;21.50;53.60;;;;;;6276345;28;20021;-70
2021/10/24 12:44:30;;;;;;;1.25;0.70;;;21.50;53.60;;;;;;6292253;28;20036;-70
2021/10/24 12:47:30;;;;;;;3.05;0.50;;;21.40;53.50;;;;;;6269020;28;20017;-70
2021/10/24 12:50:33;;;;;;;1.27;0.65;;;21.40;53.50;;;;;;6276978;28;20025;-70
2021/10/24 12:53:43;;;;;;;0.85;0.55;;;21.40;53.60;;;;;;6290285;28;20025;-70
2021/10/24 12:56:44;;;;;;;1.02;0.60;;;21.50;53.70;;;;;;6275079;28;20032;-70
2021/10/24 12:59:45;;;;;;;2.47;0.93;;;21.40;53.60;;;;;;6268186;28;20178;-70
2021/10/24 13:02:45;;;;;;;1.50;0.47;;;21.40;53.60;;;;;;6293093;28;20017;-70
2021/10/24 13:05:46;;;;;;;1.13;0.45;;;21.40;53.60;;;;;;6276774;28;20033;-70
2021/10/24 13:08:47;;;;;;;2.67;0.60;;;21.50;53.70;;;;;;6282396;28;20064;-69
2021/10/24 13:11:47;;;;;;;2.97;0.68;;;21.50;53.70;;;;;;6275425;28;20604;-69
2021/10/24 13:14:48;;;;;;;2.47;0.60;;;21.50;53.60;;;;;;6246273;28;20060;-69
2021/10/24 13:17:50;;;;;;;5.03;0.90;;;21.50;53.40;;;;;;6280609;28;20037;-69
2021/10/24 13:24:23;;;;;;;3.20;0.98;;;21.40;52.50;;;;;;6270108;28;20483;-71
2021/10/24 13:27:24;;;;;;;6.10;1.20;;;21.40;51.20;;;;;;6275185;28;20354;-70
2021/10/24 13:30:28;;;;;;;4.70;0.80;;;21.40;50.80;;;;;;6268396;28;20497;-70
2021/10/24 13:33:28;;;;;;;2.10;0.88;;;21.40;50.80;;;;;;6261958;28;20060;-70
2021/10/24 13:36:29;;;;;;;5.47;0.82;;;21.40;51.30;;;;;;6275066;28;20187;-70
2021/10/24 13:39:29;;;;;;;2.53;0.93;;;21.50;51.60;;;;;;6292422;28;20031;-70
2021/10/24 13:42:30;;;;;;;1.92;0.70;;;21.40;51.60;;;;;;6291435;28;20021;-70
2021/10/24 13:45:32;;;;;;;1.67;0.88;;;21.40;51.70;;;;;;6279632;28;20048;-70
2021/10/24 13:48:33;;;;;;;3.95;1.10;;;21.50;51.90;;;;;;6269712;28;20096;-70
2021/10/24 13:51:33;;;;;;;3.58;0.82;;;21.50;51.90;;;;;;6281065;28;20020;-71
2021/10/24 13:54:34;;;;;;;1.40;0.57;;;21.50;51.90;;;;;;6277052;28;20394;-70
2021/10/24 13:57:35;;;;;;;3.22;1.10;;;21.50;51.90;;;;;;6281206;28;20063;-69
2021/10/24 14:00:36;;;;;;;2.60;0.85;;;21.50;52.00;;;;;;6274995;28;20363;-68
2021/10/24 14:03:37;;;;;;;1.77;0.80;;;21.50;52.10;;;;;;6270926;28;20036;-70
2021/10/24 14:06:38;;;;;;;1.70;0.60;;;21.50;52.20;;;;;;6262705;28;20479;-70
2021/10/24 14:09:40;;;;;;;4.15;1.02;;;21.50;51.70;;;;;;6243536;28;20454;-70
2021/10/24 14:12:41;;;;;;;2.78;0.80;;;21.50;50.80;;;;;;6275849;28;20047;-70
2021/10/24 14:15:42;;;;;;;8.18;0.80;;;21.50;51.40;;;;;;6267109;28;20032;-70
2021/10/24 14:18:43;;;;;;;3.70;0.70;;;21.50;51.20;;;;;;6285897;28;20516;-68
2021/10/24 14:21:44;;;;;;;4.32;1.38;;;21.50;51.10;;;;;;6267657;28;20024;-69
2021/10/24 14:24:45;;;;;;;5.18;0.80;;;21.50;51.40;;;;;;6267737;28;20029;-69
2021/10/24 14:27:45;;;;;;;5.53;0.70;;;21.50;52.50;;;;;;6287843;28;20533;-69
2021/10/24 14:30:46;;;;;;;2.00;0.82;;;21.50;52.50;;;;;;6290176;28;20514;-68
2021/10/24 14:33:47;;;;;;;5.30;0.80;;;21.50;52.20;;;;;;6281199;28;20049;-70
2021/10/24 14:36:48;;;;;;;7.63;1.17;;;21.50;52.20;;;;;;6268067;28;20032;-69
2021/10/24 14:39:48;;;;;;;5.55;1.00;;;21.50;51.30;;;;;;6267073;28;20486;-69
2021/10/24 14:42:49;;;;;;;8.05;1.20;;;21.50;50.10;;;;;;6268034;28;20055;-70
2021/10/24 14:45:50;;;;;;;4.70;1.17;;;21.50;49.80;;;;;;6267475;28;20108;-70
2021/10/24 14:48:51;;;;;;;3.58;1.40;;;21.50;49.80;;;;;;6267305;28;20423;-70
2021/10/24 14:51:53;;;;;;;4.07;1.08;;;21.60;49.60;;;;;;6267769;28;20059;-70
2021/10/24 14:54:57;;;;;;;5.40;2.28;;;21.60;49.90;;;;;;6269037;28;20024;-71
2021/10/24 14:57:58;;;;;;;11.80;8.30;;;21.60;50.00;;;;;;6251606;28;20386;-71
2021/10/24 15:00:58;;;;;;;22.50;14.50;;;21.50;50.20;;;;;;6255333;28;20299;-68
2021/10/24 15:03:59;;;;;;;27.23;14.73;;;21.50;50.40;;;;;;6268085;28;20096;-70
2021/10/24 15:07:00;;;;;;;39.15;20.88;;;21.50;50.70;;;;;;6262069;28;20125;-69
2021/10/24 15:10:01;;;;;;;60.90;29.45;;;21.50;51.20;;;;;;6264326;28;20045;-70
2021/10/24 15:13:06;;;;;;;70.10;32.08;;;21.50;50.90;;;;;;6266296;28;20069;-70
2021/10/24 15:23:00;;;;;;;47.72;21.27;;;21.50;50.90;;;;;;6257616;28;20029;-70
2021/10/24 15:26:03;;;;;;;43.42;19.23;;;21.50;50.90;;;;;;6254803;28;20017;-70
2021/10/24 15:29:04;;;;;;;40.33;16.42;;;21.50;50.90;;;;;;6263204;28;20666;-70
2021/10/24 15:32:07;;;;;;;33.05;13.95;;;21.50;50.90;;;;;;6256052;28;20104;-70
2021/10/24 15:35:08;;;;;;;27.63;12.95;;;21.50;51.00;;;;;;6271415;28;20056;-70
2021/10/24 15:38:09;;;;;;;30.75;12.13;;;21.50;51.10;;;;;;6267948;28;20107;-70
2021/10/24 15:41:10;;;;;;;22.55;10.50;;;21.50;51.10;;;;;;6261855;28;20026;-70
2021/10/24 15:44:11;;;;;;;21.05;9.63;;;21.50;51.30;;;;;;6251749;28;20470;-70
2021/10/24 15:47:11;;;;;;;21.35;9.13;;;21.40;51.20;;;;;;6267515;28;20103;-70
2021/10/24 15:50:13;;;;;;;21.00;7.85;;;21.50;51.40;;;;;;6270183;28;20036;-70
2021/10/24 15:53:15;;;;;;;15.45;6.60;;;21.40;51.40;;;;;;6269504;28;20017;-72
2021/10/24 15:56:16;;;;;;;12.30;6.53;;;21.40;51.40;;;;;;6283901;28;20485;-70
2021/10/24 15:59:18;;;;;;;13.23;6.07;;;21.40;51.50;;;;;;6295717;28;20027;-70